Escondido, CA (92025)

3:47 PM PDT on August 03, 2015 (GMT -0700)
West of Kit Carson Park | | Change Station
CLOSE
Current Station
Personal Weather Station
Location: Escondido, CA
Elevation: 614 ft
Nearby Weather Stations

Elev 614 ft 33.08 °N, 117.07 °W | Updated 32 seconds ago

Clear
Clear
81.3 °F
Feels Like 83 °F
N
13.0
Wind Variable Wind from SSW
Gusts 15.0 mph

Today
High -- | Low -- °F
--% Chance of Precip.
Yesterday
High -- | Low -- °F
Precip. -- in
6:02 AM 7:45 PM
Waning Gibbous, 83% visible
Pressure 29.86 in
Visibility 10.0 miles
Clouds Clear
Heat Index 83 °F
Dew Point 65 °F
Humidity 58%
Rainfall 0.00 in
Snow Depth Not available.
UV 2.0 out of 12
Pollen 4.60 out of 12
Air Quality Not available.
Flu Activity Not available.
METAR KRNM 032153Z 26012G17KT 10SM CLR 31/17 A2991 RMK AO2 SLP111 T03110167

More Conditions Fewer Conditions

Pressure 29.86 in
Visibility 10.0 miles
Clouds Clear
Heat Index 83 °F
Dew Point 65 °F
Humidity 58%
Rainfall 0.00 in
Snow Depth Not available.
UV 2.0 out of 12
Pollen 4.60 out of 12
Air Quality Not available.
Flu Activity Not available.
METAR KRNM 032153Z 26012G17KT 10SM CLR 31/17 A2991 RMK AO2 SLP111 T03110167

More Conditions Fewer Conditions

10-Day Weather Forecast

×

Almanac

Astronomy

Aug. 03, 2015 Rise Set
Actual Time
Civil Twilight
Nautical Twilight
Astronomical Twilight
Moon
Length of Visible Light
Length of Day
Tomorrow will be .
, % of the Moon is Illuminated

Today's Extremes

State Highs State Lows

Community

WunderPhotos

Upload Photos

1,843,785 photos uploaded!

WunderBlogs® & News

Nearby

Air Quality

  Air Quality AQ Index Pollutant
Not available.

Snow Depth

Station Depth Elevation

Earthquake Activity

City Distance Mag. Time & Date
Minimum magnitude displayed is 2.5.

Coastal Water Temperatures

Place Temperature

Stations

Nearby Weather Stations

Station Location Temp. Windchill Dew Point Humidity Wind Precip. Elev Updated Type